createdAt,value
2023-04-01T00:01:47.325Z,22.10
2023-04-01T00:04:14.129Z,23.63
2023-04-01T00:06:41.064Z,21.73
2023-04-01T00:09:12.560Z,22.30
2023-04-01T00:11:39.655Z,18.80
2023-04-01T00:14:06.749Z,21.83
2023-04-01T00:16:33.831Z,19.47
2023-04-01T00:19:02.950Z,18.40
2023-04-01T00:21:32.575Z,23.37
2023-04-01T00:24:01.827Z,22.33
2023-04-01T00:26:30.845Z,20.47
2023-04-01T00:29:02.583Z,21.73
2023-04-01T00:31:29.915Z,21.27
2023-04-01T00:33:57.365Z,21.03
2023-04-01T00:36:24.326Z,20.77
2023-04-01T00:38:51.525Z,21.50
2023-04-01T00:41:18.827Z,21.30
2023-04-01T00:43:47.409Z,20.67
2023-04-01T00:46:14.442Z,20.07
2023-04-01T00:48:49.670Z,21.07
2023-04-01T00:51:21.729Z,23.00
2023-04-01T00:53:51.362Z,20.17
2023-04-01T00:56:23.381Z,19.43
2023-04-01T00:58:52.303Z,21.23
2023-04-01T01:01:19.907Z,18.73
2023-04-01T01:03:46.697Z,22.70
2023-04-01T01:06:27.855Z,21.37
2023-04-01T01:09:04.936Z,21.70
2023-04-01T01:12:09.433Z,19.83
2023-04-01T01:14:51.228Z,19.47
2023-04-01T01:17:24.778Z,24.93
2023-04-01T01:20:25.936Z,21.00
2023-04-01T01:23:10.949Z,24.47
2023-04-01T01:26:22.068Z,22.23
2023-04-01T01:29:26.396Z,25.70
2023-04-01T01:31:59.144Z,25.40
2023-04-01T01:35:04.311Z,19.93
2023-04-01T01:37:33.704Z,19.77
2023-04-01T01:40:05.096Z,25.20
2023-04-01T01:42:32.366Z,27.27
2023-04-01T01:45:01.327Z,29.77
2023-04-01T01:47:31.091Z,23.27
2023-04-01T01:50:02.968Z,21.67
2023-04-01T01:52:29.721Z,23.90
2023-04-01T01:54:57.543Z,24.70
2023-04-01T01:57:28.554Z,20.37
2023-04-01T02:00:00.687Z,21.93
2023-04-01T02:02:27.864Z,24.37
2023-04-01T02:04:54.799Z,23.77
2023-04-01T02:07:25.114Z,22.23
2023-04-01T02:09:52.779Z,21.80
2023-04-01T02:12:22.547Z,26.90
2023-04-01T02:14:54.539Z,25.60
2023-04-01T02:17:25.480Z,23.97
2023-04-01T02:20:02.533Z,23.60
2023-04-01T02:22:32.836Z,26.17
2023-04-01T02:25:02.446Z,22.83
2023-04-01T02:27:29.261Z,28.93
2023-04-01T02:29:56.063Z,24.87
2023-04-01T02:32:22.901Z,22.37
2023-04-01T02:34:49.735Z,25.77
2023-04-01T02:37:16.687Z,28.20
2023-04-01T02:39:45.662Z,27.73
2023-04-01T02:42:12.418Z,29.20
2023-04-01T02:44:39.206Z,29.43
2023-04-01T02:47:06.189Z,28.40
2023-04-01T02:49:33.080Z,37.63
2023-04-01T02:52:04.513Z,27.00
2023-04-01T02:54:31.314Z,33.00
2023-04-01T02:56:58.198Z,29.57
2023-04-01T02:59:25.035Z,29.80
2023-04-01T03:01:51.817Z,30.07
2023-04-01T03:04:18.618Z,36.70
2023-04-01T03:06:45.686Z,35.70
2023-04-01T03:09:15.333Z,30.80
2023-04-01T03:11:42.109Z,33.73
2023-04-01T03:14:08.984Z,38.30
2023-04-01T03:16:35.872Z,32.27
2023-04-01T03:19:03.310Z,32.20
2023-04-01T03:21:30.147Z,30.03
2023-04-01T03:23:59.697Z,31.53
2023-04-01T03:26:31.113Z,35.73
2023-04-01T03:28:58.086Z,35.43
2023-04-01T03:31:25.687Z,33.00
2023-04-01T03:33:52.572Z,32.57
2023-04-01T03:36:19.560Z,30.93
2023-04-01T03:38:48.668Z,33.30
2023-04-01T03:41:16.367Z,30.43
2023-04-01T03:43:45.865Z,31.30
2023-04-01T03:46:15.457Z,34.17
2023-04-01T03:48:42.260Z,29.23
2023-04-01T03:51:09.453Z,29.27
2023-04-01T03:53:38.433Z,31.10
2023-04-01T03:56:08.273Z,29.57
2023-04-01T03:58:35.423Z,31.17
2023-04-01T04:01:13.636Z,30.83
2023-04-01T04:03:43.007Z,29.80
2023-04-01T04:06:12.859Z,34.00
2023-04-01T04:08:39.909Z,28.93
2023-04-01T04:11:06.765Z,27.17
2023-04-01T04:13:36.913Z,29.33
2023-04-01T04:16:04.347Z,32.03
2023-04-01T04:18:31.236Z,28.83
2023-04-01T04:21:00.547Z,29.80
2023-04-01T04:23:28.095Z,34.53
2023-04-01T04:26:02.863Z,27.60
2023-04-01T04:28:30.201Z,30.90
2023-04-01T04:30:59.301Z,27.33
2023-04-01T04:33:26.568Z,29.53
2023-04-01T04:35:55.415Z,26.87
2023-04-01T04:38:22.219Z,26.27
2023-04-01T04:40:49.142Z,25.23
2023-04-01T04:43:16.536Z,25.33
2023-04-01T04:45:46.033Z,22.97
2023-04-01T04:48:19.575Z,24.57
2023-04-01T04:50:47.745Z,25.00
2023-04-01T04:53:17.240Z,22.77
2023-04-01T04:55:49.168Z,22.87
2023-04-01T04:58:16.372Z,22.53
2023-04-01T05:00:46.286Z,22.17
2023-04-01T05:03:13.309Z,22.57
2023-04-01T05:05:40.390Z,20.57
2023-04-01T05:08:09.694Z,21.60
2023-04-01T05:10:38.704Z,21.03
2023-04-01T05:13:07.918Z,22.43
2023-04-01T05:15:35.073Z,19.37
2023-04-01T05:18:02.076Z,19.83
2023-04-01T05:20:31.149Z,18.53
2023-04-01T05:22:58.511Z,19.87
2023-04-01T05:25:27.529Z,19.80
2023-04-01T05:27:54.405Z,20.00
2023-04-01T05:30:21.291Z,20.97
2023-04-01T05:32:50.631Z,17.33
2023-04-01T05:35:17.520Z,19.23
2023-04-01T05:37:44.354Z,17.77
2023-04-01T05:40:11.592Z,18.13
2023-04-01T05:42:38.592Z,19.93
2023-04-01T05:45:06.004Z,19.67
2023-04-01T05:47:32.898Z,18.67
2023-04-01T05:49:59.796Z,15.37
2023-04-01T05:52:26.673Z,20.00
2023-04-01T05:54:53.518Z,15.67
2023-04-01T05:57:20.806Z,15.33
2023-04-01T05:59:47.672Z,15.73
2023-04-01T06:02:14.870Z,16.17
2023-04-01T06:04:42.130Z,15.10
2023-04-01T06:07:15.917Z,20.30
2023-04-01T06:09:48.014Z,17.57
2023-04-01T06:12:38.153Z,16.37
2023-04-01T06:15:11.431Z,17.93
2023-04-01T06:17:38.620Z,17.00
2023-04-01T06:20:10.309Z,17.70
2023-04-01T06:23:05.822Z,20.80
2023-04-01T06:25:50.017Z,19.00
2023-04-01T06:28:22.822Z,21.20
2023-04-01T06:31:37.071Z,22.50
2023-04-01T06:34:22.985Z,20.97
2023-04-01T06:36:53.253Z,24.00
2023-04-01T06:39:33.033Z,23.13
2023-04-01T06:42:06.162Z,26.73
2023-04-01T06:44:42.254Z,24.10
2023-04-01T06:47:36.655Z,27.13
2023-04-01T06:50:30.107Z,26.53
2023-04-01T06:53:13.872Z,26.90
2023-04-01T06:55:45.097Z,28.50
2023-04-01T06:58:19.937Z,29.20
2023-04-01T07:00:50.798Z,30.50
2023-04-01T07:03:21.065Z,28.67
2023-04-01T07:05:47.857Z,29.87
2023-04-01T07:08:21.600Z,30.03
2023-04-01T07:11:05.583Z,26.90
2023-04-01T07:13:42.819Z,29.73
2023-04-01T07:16:31.263Z,30.03
2023-04-01T07:19:18.379Z,32.67
2023-04-01T07:21:50.137Z,32.70
2023-04-01T07:24:33.261Z,32.33
2023-04-01T07:27:00.212Z,37.07
2023-04-01T07:29:27.231Z,34.60
2023-04-01T07:32:19.187Z,37.63
2023-04-01T07:34:54.296Z,35.97
2023-04-01T07:37:27.112Z,36.80
2023-04-01T07:40:24.554Z,33.53
2023-04-01T07:43:13.341Z,37.83
2023-04-01T07:46:02.316Z,35.77
2023-04-01T07:48:53.282Z,35.50
2023-04-01T07:51:27.684Z,38.30
2023-04-01T07:54:03.629Z,34.20
2023-04-01T07:56:36.075Z,35.63
2023-04-01T07:59:34.171Z,36.20
2023-04-01T08:02:09.816Z,33.63
2023-04-01T08:05:05.481Z,35.97
2023-04-01T08:08:14.005Z,36.20
2023-04-01T08:10:46.588Z,32.77
2023-04-01T08:13:34.702Z,28.97
2023-04-01T08:16:11.724Z,39.13
2023-04-01T08:18:54.697Z,33.80
2023-04-01T08:21:36.300Z,27.07
2023-04-01T08:24:12.506Z,27.40
2023-04-01T08:26:43.651Z,25.13
2023-04-01T08:29:27.862Z,29.20
2023-04-01T08:31:59.290Z,28.23
2023-04-01T08:34:29.391Z,28.57
2023-04-01T08:37:27.117Z,32.13
2023-04-01T08:40:02.919Z,31.73
2023-04-01T08:42:56.684Z,27.30
2023-04-01T08:45:31.957Z,26.40
2023-04-01T08:48:28.221Z,26.90
2023-04-01T08:51:22.545Z,22.87
2023-04-01T08:54:07.539Z,20.73
2023-04-01T08:57:01.688Z,19.20
2023-04-01T08:59:47.136Z,19.47
2023-04-01T09:02:17.072Z,16.57
2023-04-01T09:04:52.572Z,19.20
2023-04-01T09:07:34.485Z,15.70
2023-04-01T09:10:30.709Z,9.73
2023-04-01T09:13:32.766Z,12.67
2023-04-01T09:16:18.940Z,12.20
2023-04-01T09:19:06.496Z,15.00
2023-04-01T09:21:39.241Z,15.53
2023-04-01T09:24:34.388Z,19.60
2023-04-01T09:27:27.298Z,22.00
2023-04-01T09:29:56.792Z,18.00
2023-04-01T09:32:47.753Z,18.73
2023-04-01T09:35:49.346Z,20.07
2023-04-01T09:38:26.613Z,18.17
2023-04-01T09:40:59.870Z,17.80
2023-04-01T09:44:04.865Z,20.10
2023-04-01T09:46:59.707Z,15.90
2023-04-01T09:49:41.654Z,10.07
2023-04-01T09:52:11.269Z,11.87
2023-04-01T09:54:47.244Z,11.73
2023-04-01T09:57:17.218Z,9.13
2023-04-01T10:00:06.142Z,9.53
2023-04-01T10:02:32.985Z,10.40
2023-04-01T10:05:19.698Z,8.70
2023-04-01T10:08:35.202Z,9.10
2023-04-01T10:11:25.335Z,7.60
2023-04-01T10:14:08.126Z,7.47
2023-04-01T10:17:12.147Z,7.60
2023-04-01T10:20:13.624Z,6.97
2023-04-01T10:22:58.521Z,8.80
2023-04-01T10:25:32.550Z,9.00
2023-04-01T10:27:59.514Z,8.53
2023-04-01T10:31:08.300Z,8.70
2023-04-01T10:33:53.634Z,8.53
2023-04-01T10:36:43.702Z,8.03
2023-04-01T10:39:35.392Z,7.33
2023-04-01T10:42:23.369Z,8.87
2023-04-01T10:45:08.251Z,7.17
2023-04-01T10:47:59.413Z,6.87
2023-04-01T10:50:56.513Z,7.57
2023-04-01T10:53:40.236Z,7.90
2023-04-01T10:56:46.273Z,5.57
2023-04-01T10:59:20.239Z,6.13
2023-04-01T11:02:11.293Z,8.13
2023-04-01T11:05:06.054Z,7.60
2023-04-01T11:08:08.302Z,6.03
2023-04-01T11:11:15.701Z,8.27
2023-04-01T11:13:56.129Z,6.20
2023-04-01T11:16:50.571Z,5.17
2023-04-01T11:19:55.081Z,6.43
2023-04-01T11:22:45.763Z,4.77
2023-04-01T11:25:15.532Z,6.03
2023-04-01T11:28:02.493Z,5.37
2023-04-01T11:30:55.425Z,5.50
2023-04-01T11:33:49.019Z,6.97
2023-04-01T11:36:48.602Z,9.07
2023-04-01T11:39:34.234Z,6.87
2023-04-01T11:42:38.729Z,6.97
2023-04-01T11:45:12.300Z,9.73
2023-04-01T11:47:48.423Z,9.27
2023-04-01T11:50:57.387Z,9.87
2023-04-01T11:53:36.212Z,8.43
2023-04-01T11:56:21.852Z,12.17
2023-04-01T11:59:06.876Z,10.17
2023-04-01T12:01:46.060Z,11.07
2023-04-01T12:04:31.672Z,8.67
2023-04-01T12:07:19.755Z,9.57
2023-04-01T12:09:55.923Z,11.57
2023-04-01T12:12:50.773Z,7.57
2023-04-01T12:15:49.659Z,6.77
2023-04-01T12:18:31.167Z,8.73
2023-04-01T12:20:57.991Z,6.27
2023-04-01T12:23:58.665Z,8.90
2023-04-01T12:26:53.230Z,5.60
2023-04-01T12:29:49.555Z,6.30
2023-04-01T12:32:26.138Z,4.20
2023-04-01T12:35:17.365Z,4.70
2023-04-01T12:38:23.597Z,3.93
2023-04-01T12:40:56.281Z,4.83
2023-04-01T12:43:47.606Z,4.00
2023-04-01T12:46:33.583Z,5.20
2023-04-01T12:49:00.379Z,5.20
2023-04-01T12:52:12.240Z,4.73
2023-04-01T12:54:54.118Z,5.73
2023-04-01T12:57:30.044Z,5.77
2023-04-01T13:00:11.708Z,5.33
2023-04-01T13:02:47.617Z,4.50
2023-04-01T13:05:36.168Z,4.97
2023-04-01T13:08:27.499Z,5.00
2023-04-01T13:10:56.653Z,4.97
2023-04-01T13:13:40.854Z,6.40
2023-04-01T13:16:46.041Z,5.97
2023-04-01T13:19:34.351Z,5.67
2023-04-01T13:22:16.633Z,4.77
2023-04-01T13:25:23.299Z,5.37
2023-04-01T13:27:52.644Z,5.13
2023-04-01T13:30:37.442Z,5.00
2023-04-01T13:33:22.396Z,4.93
2023-04-01T13:35:52.022Z,6.67
2023-04-01T13:38:21.648Z,7.03
2023-04-01T13:41:09.348Z,4.83
2023-04-01T13:43:37.140Z,4.50
2023-04-01T13:46:19.874Z,4.20
2023-04-01T13:49:05.221Z,4.17
2023-04-01T13:51:50.573Z,5.60
2023-04-01T13:55:01.030Z,5.23
2023-04-01T13:58:02.001Z,4.47
2023-04-01T14:00:46.981Z,3.17
2023-04-01T14:03:38.033Z,3.17
2023-04-01T14:06:16.155Z,3.63
2023-04-01T14:09:01.087Z,4.53
2023-04-01T14:11:33.844Z,5.20
2023-04-01T14:14:09.948Z,5.57
2023-04-01T14:16:51.900Z,7.13
2023-04-01T14:19:46.454Z,5.07
2023-04-01T14:22:28.897Z,5.77
2023-04-01T14:25:23.363Z,4.90
2023-04-01T14:28:27.851Z,5.13
2023-04-01T14:30:54.587Z,3.70
2023-04-01T14:33:27.255Z,5.30
2023-04-01T14:36:17.502Z,2.87
2023-04-01T14:38:55.710Z,4.57
2023-04-01T14:41:27.527Z,2.53
2023-04-01T14:44:32.089Z,5.40
2023-04-01T14:47:07.792Z,3.43
2023-04-01T14:49:38.228Z,3.80
2023-04-01T14:52:36.689Z,3.23
2023-04-01T14:55:12.545Z,2.90
2023-04-01T14:57:39.358Z,2.43
2023-04-01T15:00:18.695Z,3.53
2023-04-01T15:03:00.041Z,3.87
2023-04-01T15:06:17.924Z,4.73
2023-04-01T15:09:15.958Z,3.77
2023-04-01T15:11:49.621Z,3.67
2023-04-01T15:14:19.287Z,2.73
2023-04-01T15:17:08.392Z,2.17
2023-04-01T15:19:58.476Z,4.97
2023-04-01T15:22:43.593Z,3.00
2023-04-01T15:25:31.449Z,3.00
2023-04-01T15:28:04.430Z,3.73
2023-04-01T15:31:00.449Z,3.93
2023-04-01T15:33:51.662Z,4.20
2023-04-01T15:36:23.733Z,5.23
2023-04-01T15:39:16.316Z,8.57
2023-04-01T15:42:16.597Z,4.03
2023-04-01T15:44:55.405Z,2.60
2023-04-01T15:47:27.724Z,2.47
2023-04-01T15:49:58.559Z,3.43
2023-04-01T15:52:43.750Z,3.03
2023-04-01T15:55:27.204Z,2.37
2023-04-01T15:58:17.320Z,1.43
2023-04-01T16:01:21.323Z,1.40
2023-04-01T16:04:06.230Z,1.93
2023-04-01T16:06:58.155Z,2.03
2023-04-01T16:09:44.906Z,3.03
2023-04-01T16:12:47.951Z,4.73
2023-04-01T16:15:17.741Z,2.57
2023-04-01T16:17:53.549Z,7.30
2023-04-01T16:20:22.002Z,3.03
2023-04-01T16:22:57.125Z,4.27
2023-04-01T16:25:44.045Z,3.03
2023-04-01T16:28:35.636Z,2.50
2023-04-01T16:31:14.837Z,3.27
2023-04-01T16:34:02.765Z,3.63
2023-04-01T16:36:32.556Z,4.67
2023-04-01T16:39:11.842Z,3.50
2023-04-01T16:42:03.401Z,4.77
2023-04-01T16:44:30.993Z,3.20
2023-04-01T16:47:00.518Z,6.37
2023-04-01T16:49:31.525Z,4.40
2023-04-01T16:51:58.375Z,4.80
2023-04-01T16:54:30.834Z,5.27
2023-04-01T16:57:09.420Z,6.07
2023-04-01T16:59:39.593Z,5.90
2023-04-01T17:02:11.255Z,4.43
2023-04-01T17:04:49.738Z,4.10
2023-04-01T17:07:37.916Z,2.57
2023-04-01T17:10:29.232Z,3.70
2023-04-01T17:13:55.889Z,2.20
2023-04-01T17:16:26.266Z,2.10
2023-04-01T17:19:14.345Z,2.50
2023-04-01T17:22:02.411Z,3.47
2023-04-01T17:24:38.413Z,4.13
2023-04-01T17:27:32.799Z,2.87
2023-04-01T17:30:25.744Z,3.43
2023-04-01T17:33:06.614Z,2.63
2023-04-01T17:35:39.568Z,5.47
2023-04-01T17:38:06.528Z,4.07
2023-04-01T17:40:36.514Z,4.67
2023-04-01T17:43:24.706Z,2.87
2023-04-01T17:45:58.573Z,3.80
2023-04-01T17:48:50.429Z,3.87
2023-04-01T17:51:17.238Z,3.87
2023-04-01T17:53:56.489Z,3.80
2023-04-01T17:56:32.393Z,6.90
2023-04-01T17:59:14.508Z,7.33
2023-04-01T18:01:47.333Z,10.13
2023-04-01T18:04:35.862Z,9.50
2023-04-01T18:07:30.597Z,11.07
2023-04-01T18:10:09.482Z,10.90
2023-04-01T18:13:01.230Z,11.23
2023-04-01T18:15:52.168Z,11.10
2023-04-01T18:18:47.449Z,11.70
2023-04-01T18:21:46.634Z,11.63
2023-04-01T18:24:21.266Z,10.30
2023-04-01T18:27:12.428Z,11.90
2023-04-01T18:29:57.614Z,12.10
2023-04-01T18:32:45.974Z,10.50
2023-04-01T18:35:18.289Z,16.70
2023-04-01T18:38:01.700Z,11.13
2023-04-01T18:41:02.990Z,12.93
2023-04-01T18:43:48.425Z,12.03
2023-04-01T18:46:31.390Z,10.80
2023-04-01T18:49:27.277Z,13.07
2023-04-01T18:52:07.797Z,12.83
2023-04-01T18:54:41.492Z,15.40
2023-04-01T18:57:19.675Z,13.13
2023-04-01T18:59:54.393Z,13.90
2023-04-01T19:02:46.689Z,12.20
2023-04-01T19:05:20.689Z,13.10
2023-04-01T19:07:55.007Z,14.20
2023-04-01T19:10:39.672Z,16.73
2023-04-01T19:13:16.234Z,13.23
2023-04-01T19:16:01.998Z,14.37
2023-04-01T19:18:53.735Z,14.40
2023-04-01T19:21:28.146Z,14.07
2023-04-01T19:24:01.776Z,14.10
2023-04-01T19:26:36.613Z,13.97
2023-04-01T19:29:23.655Z,14.67
2023-04-01T19:32:00.329Z,15.97
2023-04-01T19:34:47.357Z,14.03
2023-04-01T19:37:22.792Z,15.03
2023-04-01T19:40:01.525Z,14.47
2023-04-01T19:42:46.789Z,15.77
2023-04-01T19:45:35.589Z,15.97
2023-04-01T19:48:27.142Z,14.57
2023-04-01T19:51:06.331Z,13.97
2023-04-01T19:53:56.948Z,10.70
2023-04-01T19:56:32.547Z,11.97
2023-04-01T19:59:25.002Z,12.50
2023-04-01T20:02:01.473Z,9.40
2023-04-01T20:04:36.134Z,9.00
2023-04-01T20:07:05.100Z,11.27
2023-04-01T20:10:11.090Z,10.23
2023-04-01T20:13:02.718Z,10.87
2023-04-01T20:15:42.199Z,10.87
2023-04-01T20:18:23.065Z,10.97
2023-04-01T20:21:14.968Z,11.17
2023-04-01T20:23:43.009Z,10.83
2023-04-01T20:26:13.950Z,8.40
2023-04-01T20:28:44.284Z,8.13
2023-04-01T20:31:32.394Z,10.30
2023-04-01T20:34:09.669Z,13.20
2023-04-01T20:36:59.186Z,11.73
2023-04-01T20:39:47.082Z,17.77
2023-04-01T20:42:22.993Z,15.17
2023-04-01T20:45:24.660Z,12.93
2023-04-01T20:47:58.900Z,11.63
2023-04-01T20:50:59.100Z,12.20
2023-04-01T20:53:44.774Z,11.50
2023-04-01T20:56:16.325Z,9.53
2023-04-01T20:58:52.858Z,9.60
2023-04-01T21:01:41.499Z,8.80
2023-04-01T21:04:25.849Z,9.00
2023-04-01T21:06:53.687Z,10.83
2023-04-01T21:09:37.200Z,8.67
2023-04-01T21:12:25.613Z,7.87
2023-04-01T21:14:54.578Z,7.13
2023-04-01T21:17:24.821Z,9.13
2023-04-01T21:20:11.041Z,12.90
2023-04-01T21:23:05.827Z,13.50
2023-04-01T21:25:44.814Z,19.17
2023-04-01T21:28:29.970Z,14.73
2023-04-01T21:31:19.704Z,14.43
2023-04-01T21:34:02.695Z,15.57
2023-04-01T21:36:50.776Z,17.90
2023-04-01T21:39:28.439Z,15.63
2023-04-01T21:42:13.697Z,14.13
2023-04-01T21:45:11.458Z,11.57
2023-04-01T21:47:52.637Z,8.93
2023-04-01T21:50:33.866Z,10.00
2023-04-01T21:53:11.930Z,9.77
2023-04-01T21:56:26.222Z,9.77
2023-04-01T21:59:14.267Z,10.17
2023-04-01T22:02:04.711Z,8.83
2023-04-01T22:04:40.608Z,9.37
2023-04-01T22:07:20.707Z,8.53
2023-04-01T22:09:47.502Z,6.47
2023-04-01T22:12:25.200Z,7.00
2023-04-01T22:15:22.714Z,7.30
2023-04-01T22:18:02.581Z,7.77
2023-04-01T22:20:46.114Z,6.30
2023-04-01T22:23:46.984Z,6.30
2023-04-01T22:26:38.557Z,7.33
2023-04-01T22:29:08.974Z,9.47
2023-04-01T22:31:47.285Z,8.90
2023-04-01T22:34:53.864Z,11.37
2023-04-01T22:38:14.805Z,13.00
2023-04-01T22:40:59.380Z,9.30
2023-04-01T22:43:39.334Z,12.07
2023-04-01T22:46:34.405Z,12.03
2023-04-01T22:49:23.662Z,10.20
2023-04-01T22:52:00.221Z,9.07
2023-04-01T22:54:37.875Z,8.17
2023-04-01T22:57:38.753Z,9.27
2023-04-01T23:00:20.119Z,7.47
2023-04-01T23:03:06.966Z,7.57
2023-04-01T23:05:37.809Z,8.20
2023-04-01T23:08:42.184Z,6.23
2023-04-01T23:11:28.162Z,9.63
2023-04-01T23:14:06.113Z,8.70
2023-04-01T23:16:40.208Z,9.03
2023-04-01T23:19:15.469Z,9.53
2023-04-01T23:22:08.676Z,10.00
2023-04-01T23:24:41.860Z,12.63
2023-04-01T23:27:25.337Z,13.77
2023-04-01T23:29:54.619Z,11.83
2023-04-01T23:32:25.804Z,10.83
2023-04-01T23:35:04.290Z,18.20
2023-04-01T23:37:31.345Z,11.20
2023-04-01T23:39:58.949Z,9.27
2023-04-01T23:42:28.220Z,10.20
2023-04-01T23:45:14.566Z,10.53
2023-04-01T23:47:42.033Z,8.67
2023-04-01T23:50:22.325Z,10.10
2023-04-01T23:53:03.339Z,11.23
2023-04-01T23:55:35.666Z,8.20
2023-04-01T23:58:18.547Z,9.77
